createdAt,value
2023-05-14T00:01:59.871Z,2.10
2023-05-14T00:05:02.856Z,2.40
2023-05-14T00:08:06.515Z,2.20
2023-05-14T00:11:09.622Z,2.55
2023-05-14T00:14:12.537Z,2.80
2023-05-14T00:17:18.762Z,2.37
2023-05-14T00:20:21.787Z,2.35
2023-05-14T00:23:25.086Z,2.60
2023-05-14T00:26:27.806Z,2.42
2023-05-14T00:29:30.668Z,2.60
2023-05-14T00:32:34.634Z,2.03
2023-05-14T00:35:38.449Z,2.30
2023-05-14T00:38:42.113Z,2.50
2023-05-14T00:41:44.859Z,2.60
2023-05-14T00:44:47.618Z,2.30
2023-05-14T00:47:51.338Z,2.50
2023-05-14T00:50:55.161Z,2.70
2023-05-14T00:53:58.057Z,2.33
2023-05-14T00:57:01.527Z,2.17
2023-05-14T01:00:04.827Z,2.42
2023-05-14T01:03:08.758Z,2.47
2023-05-14T01:06:33.377Z,2.45
2023-05-14T01:10:08.682Z,2.60
2023-05-14T01:13:23.688Z,2.50
2023-05-14T01:16:28.659Z,2.60
2023-05-14T01:19:34.331Z,2.17
2023-05-14T01:22:38.219Z,1.92
2023-05-14T01:25:41.554Z,2.45
2023-05-14T01:28:45.556Z,2.47
2023-05-14T01:31:51.297Z,2.47
2023-05-14T01:34:58.085Z,2.20
2023-05-14T01:38:03.625Z,2.50
2023-05-14T01:41:06.794Z,2.63
2023-05-14T01:44:10.098Z,2.20
2023-05-14T01:47:12.841Z,2.30
2023-05-14T01:50:19.310Z,1.90
2023-05-14T01:53:23.713Z,2.10
2023-05-14T01:56:27.197Z,2.17
2023-05-14T01:59:30.161Z,1.90
2023-05-14T02:02:33.118Z,2.38
2023-05-14T02:05:36.001Z,2.33
2023-05-14T02:08:38.756Z,2.50
2023-05-14T02:11:41.482Z,2.42
2023-05-14T02:14:44.184Z,2.00
2023-05-14T02:17:47.542Z,2.50
2023-05-14T02:20:59.204Z,2.20
2023-05-14T02:24:02.533Z,2.42
2023-05-14T02:27:06.414Z,2.42
2023-05-14T02:30:09.751Z,2.10
2023-05-14T02:33:13.099Z,1.92
2023-05-14T02:36:17.141Z,1.90
2023-05-14T02:39:20.641Z,2.30
2023-05-14T02:42:23.378Z,2.20
2023-05-14T02:45:26.158Z,2.25
2023-05-14T02:48:29.001Z,1.90
2023-05-14T02:51:31.760Z,1.90
2023-05-14T02:54:34.927Z,2.22
2023-05-14T02:57:37.623Z,1.80
2023-05-14T03:00:40.449Z,2.00
2023-05-14T03:03:43.927Z,2.22
2023-05-14T03:06:47.423Z,1.90
2023-05-14T03:09:50.138Z,2.15
2023-05-14T03:12:52.886Z,1.83
2023-05-14T03:15:55.883Z,2.40
2023-05-14T03:18:58.743Z,2.40
2023-05-14T03:22:01.693Z,1.90
2023-05-14T03:25:04.964Z,2.30
2023-05-14T03:28:07.755Z,2.17
2023-05-14T03:31:10.829Z,2.17
2023-05-14T03:34:14.812Z,2.40
2023-05-14T03:37:17.744Z,2.27
2023-05-14T03:40:21.574Z,2.00
2023-05-14T03:43:24.580Z,2.15
2023-05-14T03:46:27.524Z,2.35
2023-05-14T03:49:32.281Z,2.45
2023-05-14T03:52:34.995Z,2.30
2023-05-14T03:55:38.774Z,2.30
2023-05-14T03:58:41.547Z,2.25
2023-05-14T04:01:44.789Z,2.45
2023-05-14T04:04:47.580Z,2.50
2023-05-14T04:07:53.874Z,2.20
2023-05-14T04:10:56.765Z,1.83
2023-05-14T04:13:59.606Z,2.35
2023-05-14T04:17:02.542Z,1.90
2023-05-14T04:20:05.856Z,2.30
2023-05-14T04:23:09.645Z,2.20
2023-05-14T04:26:12.440Z,2.10
2023-05-14T04:29:15.105Z,1.80
2023-05-14T04:32:18.509Z,2.30
2023-05-14T04:35:24.697Z,2.35
2023-05-14T04:38:28.294Z,2.40
2023-05-14T04:41:30.926Z,2.03
2023-05-14T04:44:34.746Z,2.50
2023-05-14T04:47:37.670Z,2.30
2023-05-14T04:50:40.458Z,2.33
2023-05-14T04:53:43.119Z,2.07
2023-05-14T04:56:50.038Z,2.08
2023-05-14T04:59:53.533Z,2.33
2023-05-14T05:02:56.312Z,2.72
2023-05-14T05:05:59.050Z,2.40
2023-05-14T05:09:02.432Z,2.50
2023-05-14T05:12:05.670Z,2.38
2023-05-14T05:15:09.676Z,2.05
2023-05-14T05:18:12.460Z,2.50
2023-05-14T05:21:15.249Z,1.95
2023-05-14T05:24:18.027Z,2.10
2023-05-14T05:27:22.163Z,2.33
2023-05-14T05:30:25.153Z,2.75
2023-05-14T05:33:28.905Z,2.08
2023-05-14T05:36:32.154Z,2.00
2023-05-14T05:39:35.301Z,2.33
2023-05-14T05:42:38.066Z,2.10
2023-05-14T05:45:41.634Z,2.63
2023-05-14T05:48:44.268Z,2.10
2023-05-14T05:51:47.038Z,2.33
2023-05-14T05:54:49.810Z,2.00
2023-05-14T05:57:52.629Z,1.88
2023-05-14T06:00:55.672Z,2.35
2023-05-14T06:03:58.759Z,2.30
2023-05-14T06:07:01.498Z,2.17
2023-05-14T06:10:05.091Z,2.00
2023-05-14T06:13:09.120Z,1.90
2023-05-14T06:16:11.922Z,2.08
2023-05-14T06:19:14.922Z,2.03
2023-05-14T06:22:17.917Z,2.42
2023-05-14T06:25:20.659Z,2.13
2023-05-14T06:28:23.461Z,2.45
2023-05-14T06:31:26.515Z,2.20
2023-05-14T06:34:29.639Z,2.40
2023-05-14T06:37:32.441Z,1.98
2023-05-14T06:40:35.092Z,2.30
2023-05-14T06:43:37.782Z,2.50
2023-05-14T06:46:40.559Z,2.80
2023-05-14T06:49:43.404Z,2.50
2023-05-14T06:52:46.730Z,2.10
2023-05-14T06:55:49.477Z,2.50
2023-05-14T06:58:52.217Z,2.63
2023-05-14T07:01:55.635Z,2.72
2023-05-14T07:04:58.481Z,2.17
2023-05-14T07:08:01.215Z,2.45
2023-05-14T07:11:04.050Z,2.27
2023-05-14T07:14:06.828Z,2.47
2023-05-14T07:17:09.582Z,2.47
2023-05-14T07:20:13.104Z,2.10
2023-05-14T07:23:18.567Z,2.90
2023-05-14T07:26:24.583Z,2.50
2023-05-14T07:29:27.491Z,2.33
2023-05-14T07:32:30.184Z,3.05
2023-05-14T07:35:33.133Z,2.50
2023-05-14T07:38:35.950Z,2.28
2023-05-14T07:41:38.603Z,2.37
2023-05-14T07:44:41.262Z,2.58
2023-05-14T07:47:44.156Z,2.25
2023-05-14T07:50:46.877Z,2.28
2023-05-14T07:53:49.742Z,2.40
2023-05-14T07:56:52.499Z,2.20
2023-05-14T07:59:55.396Z,2.83
2023-05-14T08:02:58.171Z,2.10
2023-05-14T08:06:01.301Z,2.50
2023-05-14T08:09:05.573Z,2.58
2023-05-14T08:12:08.747Z,2.23
2023-05-14T08:15:12.623Z,2.47
2023-05-14T08:18:15.338Z,2.38
2023-05-14T08:21:21.264Z,2.30
2023-05-14T08:24:23.972Z,2.13
2023-05-14T08:27:27.801Z,2.40
2023-05-14T08:30:30.662Z,2.75
2023-05-14T08:33:33.302Z,2.38
2023-05-14T08:36:36.746Z,2.40
2023-05-14T08:39:39.453Z,2.58
2023-05-14T08:42:43.303Z,2.57
2023-05-14T08:45:48.390Z,2.45
2023-05-14T08:49:00.711Z,2.63
2023-05-14T08:52:07.121Z,2.55
2023-05-14T08:55:11.880Z,2.95
2023-05-14T08:58:16.877Z,2.53
2023-05-14T09:01:20.098Z,2.55
2023-05-14T09:04:24.651Z,2.70
2023-05-14T09:07:28.241Z,2.58
2023-05-14T09:10:30.868Z,3.20
2023-05-14T09:13:33.696Z,2.40
2023-05-14T09:16:37.368Z,2.70
2023-05-14T09:19:44.086Z,2.85
2023-05-14T09:22:55.708Z,2.50
2023-05-14T09:25:58.470Z,2.78
2023-05-14T09:29:02.700Z,2.40
2023-05-14T09:32:07.610Z,2.42
2023-05-14T09:35:30.621Z,2.40
2023-05-14T09:38:34.039Z,2.63
2023-05-14T09:41:37.615Z,2.40
2023-05-14T09:44:40.329Z,2.40
2023-05-14T09:47:43.347Z,2.63
2023-05-14T09:50:47.201Z,2.67
2023-05-14T09:53:52.734Z,2.70
2023-05-14T09:56:55.966Z,2.60
2023-05-14T09:59:58.765Z,2.60
2023-05-14T10:03:08.244Z,2.67
2023-05-14T10:06:14.096Z,2.60
2023-05-14T10:09:20.136Z,2.50
2023-05-14T10:12:23.603Z,2.65
2023-05-14T10:15:35.464Z,2.60
2023-05-14T10:18:43.829Z,2.53
2023-05-14T10:21:50.018Z,2.90
2023-05-14T10:24:53.750Z,2.40
2023-05-14T10:27:59.708Z,2.38
2023-05-14T10:31:02.705Z,2.77
2023-05-14T10:34:46.420Z,2.42
2023-05-14T10:37:51.893Z,2.60
2023-05-14T10:41:01.734Z,2.75
2023-05-14T10:44:10.874Z,2.67
2023-05-14T10:47:15.308Z,2.63
2023-05-14T10:50:20.129Z,2.25
2023-05-14T10:53:36.361Z,2.65
2023-05-14T10:56:39.108Z,2.92
2023-05-14T10:59:42.901Z,2.72
2023-05-14T11:02:46.997Z,2.63
2023-05-14T11:05:50.371Z,2.55
2023-05-14T11:08:53.609Z,2.72
2023-05-14T11:11:56.416Z,2.60
2023-05-14T11:15:01.068Z,2.40
2023-05-14T11:18:05.201Z,3.07
2023-05-14T11:21:07.914Z,2.25
2023-05-14T11:24:10.958Z,3.00
2023-05-14T11:27:13.729Z,3.20
2023-05-14T11:30:19.164Z,2.70
2023-05-14T11:33:21.907Z,2.60
2023-05-14T11:36:24.687Z,2.40
2023-05-14T11:39:27.332Z,2.80
2023-05-14T11:42:30.153Z,2.33
2023-05-14T11:45:33.436Z,2.83
2023-05-14T11:48:36.212Z,2.57
2023-05-14T11:51:38.774Z,2.60
2023-05-14T11:54:45.663Z,2.42
2023-05-14T11:57:49.061Z,2.47
2023-05-14T12:00:53.556Z,3.15
2023-05-14T12:03:56.559Z,2.47
2023-05-14T12:07:07.298Z,2.75
2023-05-14T12:10:12.434Z,2.80
2023-05-14T12:13:18.420Z,2.60
2023-05-14T12:16:21.749Z,2.53
2023-05-14T12:19:25.957Z,2.70
2023-05-14T12:22:30.067Z,2.78
2023-05-14T12:25:32.888Z,2.75
2023-05-14T12:28:38.960Z,2.97
2023-05-14T12:31:50.870Z,2.50
2023-05-14T12:34:53.656Z,2.30
2023-05-14T12:37:57.024Z,3.28
2023-05-14T12:41:00.604Z,2.38
2023-05-14T12:44:06.404Z,2.72
2023-05-14T12:47:09.205Z,3.33
2023-05-14T12:50:12.009Z,2.90
2023-05-14T12:53:16.476Z,2.78
2023-05-14T12:56:19.164Z,3.25
2023-05-14T12:59:21.822Z,2.80
2023-05-14T13:02:27.842Z,3.05
2023-05-14T13:05:30.655Z,3.20
2023-05-14T13:08:34.212Z,3.22
2023-05-14T13:11:36.930Z,3.00
2023-05-14T13:14:39.641Z,3.10
2023-05-14T13:17:42.464Z,2.83
2023-05-14T13:20:47.537Z,3.10
2023-05-14T13:23:50.268Z,3.10
2023-05-14T13:26:52.959Z,3.28
2023-05-14T13:29:55.689Z,3.10
2023-05-14T13:33:00.124Z,2.92
2023-05-14T13:36:03.404Z,3.17
2023-05-14T13:39:07.069Z,2.88
2023-05-14T13:42:09.729Z,3.35
2023-05-14T13:45:13.299Z,3.22
2023-05-14T13:48:16.032Z,3.38
2023-05-14T13:51:18.775Z,3.63
2023-05-14T13:54:22.435Z,3.30
2023-05-14T13:57:25.121Z,3.38
2023-05-14T14:00:27.776Z,4.28
2023-05-14T14:03:30.509Z,3.30
2023-05-14T14:06:33.555Z,3.40
2023-05-14T14:09:37.075Z,3.72
2023-05-14T14:12:39.833Z,3.95
2023-05-14T14:15:47.432Z,3.22
2023-05-14T14:18:52.292Z,3.13
2023-05-14T14:21:54.988Z,3.03
2023-05-14T14:24:57.666Z,3.47
2023-05-14T14:28:00.386Z,4.03
2023-05-14T14:31:03.344Z,3.97
2023-05-14T14:34:06.263Z,3.50
2023-05-14T14:37:09.012Z,3.27
2023-05-14T14:40:12.199Z,3.42
2023-05-14T14:43:14.935Z,3.08
2023-05-14T14:46:17.640Z,3.45
2023-05-14T14:49:20.449Z,4.22
2023-05-14T14:52:26.740Z,3.80
2023-05-14T14:55:29.476Z,3.50
2023-05-14T14:58:32.849Z,3.72
2023-05-14T15:01:35.796Z,3.47
2023-05-14T15:04:38.937Z,3.60
2023-05-14T15:07:41.595Z,3.87
2023-05-14T15:10:45.903Z,3.50
2023-05-14T15:13:48.864Z,3.53
2023-05-14T15:16:56.656Z,3.40
2023-05-14T15:19:59.613Z,3.33
2023-05-14T15:23:05.674Z,3.30
2023-05-14T15:26:08.440Z,4.68
2023-05-14T15:29:11.125Z,3.80
2023-05-14T15:32:13.802Z,3.25
2023-05-14T15:35:16.616Z,3.58
2023-05-14T15:38:19.372Z,4.13
2023-05-14T15:41:22.908Z,4.03
2023-05-14T15:44:26.505Z,3.80
2023-05-14T15:47:29.340Z,4.05
2023-05-14T15:50:32.066Z,3.88
2023-05-14T15:53:34.844Z,3.70
2023-05-14T15:56:37.516Z,3.60
2023-05-14T15:59:40.278Z,3.58
2023-05-14T16:02:43.073Z,3.92
2023-05-14T16:05:46.323Z,3.55
2023-05-14T16:08:49.436Z,3.70
2023-05-14T16:11:52.166Z,3.50
2023-05-14T16:14:57.136Z,3.17
2023-05-14T16:18:00.495Z,3.47
2023-05-14T16:21:03.832Z,3.40
2023-05-14T16:24:07.208Z,3.50
2023-05-14T16:27:09.875Z,3.65
2023-05-14T16:30:12.974Z,3.70
2023-05-14T16:33:15.650Z,3.45
2023-05-14T16:36:18.492Z,3.60
2023-05-14T16:39:21.298Z,3.60
2023-05-14T16:42:24.116Z,4.05
2023-05-14T16:45:27.194Z,3.88
2023-05-14T16:48:30.103Z,3.35
2023-05-14T16:51:33.090Z,3.92
2023-05-14T16:54:36.578Z,3.00
2023-05-14T16:57:43.845Z,3.53
2023-05-14T17:00:46.758Z,3.97
2023-05-14T17:03:49.843Z,4.05
2023-05-14T17:06:52.777Z,3.95
2023-05-14T17:09:55.575Z,4.07
2023-05-14T17:12:58.480Z,3.72
2023-05-14T17:16:02.061Z,3.58
2023-05-14T17:19:05.268Z,3.85
2023-05-14T17:22:08.626Z,3.30
2023-05-14T17:25:11.679Z,3.67
2023-05-14T17:28:30.149Z,3.97
2023-05-14T17:31:33.055Z,3.40
2023-05-14T17:34:35.908Z,3.63
2023-05-14T17:37:38.655Z,3.58
2023-05-14T17:40:41.417Z,3.90
2023-05-14T17:43:44.213Z,3.45
2023-05-14T17:46:47.949Z,3.42
2023-05-14T17:49:51.410Z,4.00
2023-05-14T17:52:55.517Z,3.58
2023-05-14T17:55:59.873Z,3.50
2023-05-14T17:59:02.689Z,3.35
2023-05-14T18:02:06.156Z,3.85
2023-05-14T18:05:09.103Z,4.15
2023-05-14T18:08:12.674Z,4.38
2023-05-14T18:11:16.426Z,3.33
2023-05-14T18:14:19.567Z,4.00
2023-05-14T18:17:23.357Z,3.75
2023-05-14T18:20:29.086Z,3.80
2023-05-14T18:23:33.030Z,3.90
2023-05-14T18:26:36.734Z,3.40
2023-05-14T18:29:40.678Z,3.38
2023-05-14T18:32:45.073Z,3.35
2023-05-14T18:35:49.168Z,3.92
2023-05-14T18:38:53.701Z,3.90
2023-05-14T18:41:57.653Z,3.50
2023-05-14T18:45:01.652Z,3.55
2023-05-14T18:48:06.199Z,3.80
2023-05-14T18:51:11.497Z,3.45
2023-05-14T18:54:15.977Z,3.83
2023-05-14T18:57:20.787Z,3.33
2023-05-14T19:00:24.922Z,3.60
2023-05-14T19:03:28.957Z,3.70
2023-05-14T19:06:34.211Z,3.17
2023-05-14T19:09:38.423Z,3.40
2023-05-14T19:12:42.365Z,3.50
2023-05-14T19:15:46.155Z,3.55
2023-05-14T19:18:51.380Z,3.72
2023-05-14T19:21:55.361Z,3.53
2023-05-14T19:24:59.585Z,3.88
2023-05-14T19:28:04.953Z,3.03
2023-05-14T19:31:08.643Z,3.55
2023-05-14T19:34:32.738Z,3.08
2023-05-14T19:37:36.568Z,3.15
2023-05-14T19:40:40.421Z,3.30
2023-05-14T19:43:44.210Z,2.93
2023-05-14T19:46:48.155Z,3.08
2023-05-14T19:49:53.163Z,3.08
2023-05-14T19:52:57.779Z,3.17
2023-05-14T19:56:02.353Z,3.22
2023-05-14T19:59:06.020Z,3.20
2023-05-14T20:02:09.509Z,3.00
2023-05-14T20:05:13.151Z,3.30
2023-05-14T20:08:16.613Z,3.72
2023-05-14T20:11:19.772Z,3.50
2023-05-14T20:14:22.539Z,3.10
2023-05-14T20:17:25.490Z,3.03
2023-05-14T20:20:30.419Z,3.20
2023-05-14T20:23:35.851Z,3.13
2023-05-14T20:26:38.568Z,3.72
2023-05-14T20:29:44.320Z,3.60
2023-05-14T20:32:47.298Z,3.13
2023-05-14T20:35:50.270Z,3.60
2023-05-14T20:38:53.101Z,3.15
2023-05-14T20:41:56.084Z,3.28
2023-05-14T20:44:59.160Z,3.07
2023-05-14T20:48:02.113Z,3.00
2023-05-14T20:51:08.089Z,3.25
2023-05-14T20:54:10.886Z,3.03
2023-05-14T20:57:16.037Z,3.67
2023-05-14T21:00:19.487Z,3.10
2023-05-14T21:03:22.190Z,3.03
2023-05-14T21:06:25.076Z,2.80
2023-05-14T21:09:27.990Z,3.13
2023-05-14T21:12:30.704Z,2.72
2023-05-14T21:15:33.462Z,3.37
2023-05-14T21:18:36.788Z,3.10
2023-05-14T21:21:39.638Z,3.28
2023-05-14T21:24:42.346Z,2.88
2023-05-14T21:27:45.112Z,3.10
2023-05-14T21:30:49.100Z,2.80
2023-05-14T21:33:51.799Z,2.72
2023-05-14T21:36:54.557Z,2.92
2023-05-14T21:39:57.894Z,3.17
2023-05-14T21:43:01.356Z,3.50
2023-05-14T21:46:04.108Z,2.63
2023-05-14T21:49:07.173Z,3.00
2023-05-14T21:52:09.899Z,2.90
2023-05-14T21:55:12.727Z,3.03
2023-05-14T21:58:15.481Z,3.13
2023-05-14T22:01:18.184Z,3.20
2023-05-14T22:04:21.116Z,2.85
2023-05-14T22:07:23.922Z,3.13
2023-05-14T22:10:26.604Z,2.83
2023-05-14T22:13:30.641Z,2.95
2023-05-14T22:16:33.597Z,2.90
2023-05-14T22:19:36.384Z,2.85
2023-05-14T22:22:39.291Z,3.20
2023-05-14T22:25:42.028Z,3.30
2023-05-14T22:28:44.747Z,2.67
2023-05-14T22:31:47.498Z,2.57
2023-05-14T22:34:50.362Z,2.92
2023-05-14T22:37:53.051Z,2.85
2023-05-14T22:40:56.130Z,3.03
2023-05-14T22:43:58.975Z,2.92
2023-05-14T22:47:01.677Z,2.50
2023-05-14T22:50:07.491Z,2.83
2023-05-14T22:53:10.350Z,2.58
2023-05-14T22:56:13.213Z,2.60
2023-05-14T22:59:16.060Z,2.70
2023-05-14T23:02:18.669Z,2.70
2023-05-14T23:05:21.434Z,2.90
2023-05-14T23:08:24.146Z,2.95
2023-05-14T23:11:27.298Z,3.00
2023-05-14T23:14:30.147Z,2.90
2023-05-14T23:17:33.026Z,2.93
2023-05-14T23:20:38.660Z,2.63
2023-05-14T23:23:41.294Z,2.78
2023-05-14T23:26:44.362Z,2.35
2023-05-14T23:29:47.010Z,2.45
2023-05-14T23:32:49.803Z,2.57
2023-05-14T23:35:53.237Z,2.65
2023-05-14T23:38:55.926Z,2.67
2023-05-14T23:41:58.626Z,2.67
2023-05-14T23:45:01.376Z,2.55
2023-05-14T23:48:04.698Z,2.50
2023-05-14T23:51:07.413Z,2.60
2023-05-14T23:54:10.198Z,2.63
2023-05-14T23:57:14.586Z,2.42
